Time;durP1;ratioP1;P1;durP2;ratioP2;P2;SDS_P1;SDS_P2;PMS_P1;PMS_P2;Temp;Humidity;BMP_temperature;BMP_pressure;BME280_temperature;BME280_humidity;BME280_pressure;Samples;Min_cycle;Max_cycle;Signal;HPM_P1;HPM_P2
2022/06/22 00:00:43;;;;;;;4.08;0.10;;;;;;;14.50;58.49;98730.67;1693664;84;21039;-71
2022/06/22 00:03:11;;;;;;;2.10;0.10;;;;;;;14.53;58.27;98730.18;1677013;84;21510;-71
2022/06/22 00:05:49;;;;;;;1.65;0.03;;;;;;;14.56;58.23;98735.05;1690187;83;21047;-71
2022/06/22 00:08:24;;;;;;;0.10;0.00;;;;;;;14.54;58.16;98735.00;1686081;83;21075;-71
2022/06/22 00:11:13;;;;;;;0.20;0.00;;;;;;;14.51;58.31;98733.64;1684429;83;21645;-72
2022/06/22 00:13:53;;;;;;;1.17;0.28;;;;;;;14.50;58.22;98736.03;1701931;83;21023;-70
2022/06/22 00:16:30;;;;;;;0.10;0.00;;;;;;;14.49;58.17;98731.75;1702283;83;21012;-71
2022/06/22 00:18:58;;;;;;;0.30;0.10;;;;;;;14.46;58.41;98729.56;1693558;83;21027;-72
2022/06/22 00:21:40;;;;;;;0.10;0.00;;;;;;;14.43;58.42;98722.05;1689613;83;21099;-71
2022/06/22 00:24:26;;;;;;;1.17;0.20;;;;;;;14.43;58.66;98711.84;1688637;83;21046;-71
2022/06/22 00:26:57;;;;;;;1.65;0.03;;;;;;;14.43;58.91;98709.16;1587951;87;21116;-72
2022/06/22 00:29:36;;;;;;;0.10;0.10;;;;;;;14.44;58.78;98706.77;1687244;83;21072;-71
2022/06/22 00:34:34;;;;;;;0.40;0.10;;;;;;;14.53;59.01;98694.52;1757417;78;23012;-72
2022/06/22 00:37:05;;;;;;;0.35;0.10;;;;;;;14.46;58.93;98689.36;1706790;83;21071;-71
2022/06/22 00:39:39;;;;;;;0.10;0.10;;;;;;;14.45;58.92;98679.71;1705841;83;21559;-72
2022/06/22 00:42:14;;;;;;;0.62;0.10;;;;;;;14.44;59.18;98677.28;1711641;83;21014;-73
2022/06/22 00:45:09;;;;;;;0.20;0.05;;;;;;;14.41;59.07;98680.75;1705220;83;21031;-73
2022/06/22 00:48:01;;;;;;;0.10;0.00;;;;;;;14.42;59.21;98681.55;1694137;83;21089;-73
2022/06/22 00:50:42;;;;;;;1.37;0.00;;;;;;;14.35;59.44;98672.39;1687660;83;21829;-72
2022/06/22 00:53:40;;;;;;;0.30;0.00;;;;;;;14.25;59.60;98668.25;1693512;83;21047;-72
2022/06/22 00:56:35;;;;;;;0.00;0.00;;;;;;;14.13;60.01;98667.61;1701146;83;21607;-71
2022/06/22 00:59:36;;;;;;;0.13;0.00;;;;;;;14.02;60.48;98674.19;1693667;83;21298;-71
2022/06/22 01:02:24;;;;;;;0.72;0.10;;;;;;;13.91;60.92;98665.76;1711106;83;21040;-71
2022/06/22 01:04:59;;;;;;;2.95;0.20;;;;;;;13.84;61.15;98667.81;1704029;83;21100;-72
2022/06/22 01:07:54;;;;;;;1.55;0.15;;;;;;;13.83;61.26;98661.66;1707754;83;21020;-71
2022/06/22 01:10:32;;;;;;;0.20;0.10;;;;;;;13.86;61.89;98661.67;1705688;83;21647;-72
2022/06/22 01:13:10;;;;;;;0.10;0.10;;;;;;;13.85;61.81;98657.94;1724000;82;21013;-73
2022/06/22 01:15:51;;;;;;;4.03;0.10;;;;;;;13.83;62.31;98656.30;1724733;82;21132;-73
2022/06/22 01:18:43;;;;;;;1.25;0.10;;;;;;;13.81;62.33;98653.61;1723995;83;21044;-73
2022/06/22 01:21:18;;;;;;;0.08;0.00;;;;;;;13.81;62.81;98646.91;1727332;82;20982;-71
2022/06/22 01:23:56;;;;;;;0.00;0.00;;;;;;;13.77;62.76;98647.94;1698374;82;21133;-71
2022/06/22 01:26:37;;;;;;;0.95;0.30;;;;;;;13.76;62.94;98644.16;1697937;83;21062;-71
2022/06/22 01:29:20;;;;;;;0.10;0.00;;;;;;;13.80;63.16;98638.05;1697245;83;21010;-71
2022/06/22 01:32:07;;;;;;;0.30;0.00;;;;;;;13.85;62.89;98635.97;1703321;83;21706;-71
2022/06/22 01:34:37;;;;;;;0.20;0.10;;;;;;;13.88;62.75;98637.33;1654326;84;21068;-72
2022/06/22 01:37:09;;;;;;;1.62;0.00;;;;;;;13.89;63.09;98639.76;1652357;85;21056;-70
2022/06/22 01:39:35;;;;;;;1.00;0.10;;;;;;;13.55;63.29;98584.23;1646001;85;21082;-71
2022/06/22 01:42:25;;;;;;;0.33;0.00;;;;;;;13.87;63.15;98633.05;1646451;85;21014;-72
2022/06/22 01:45:02;;;;;;;0.15;0.10;;;;;;;13.87;63.14;98625.02;1651729;85;21006;-71
2022/06/22 01:47:55;;;;;;;1.17;0.40;;;;;;;13.82;62.95;98621.23;1641825;86;21712;-71
2022/06/22 01:50:49;;;;;;;0.33;0.00;;;;;;;13.80;63.44;98625.20;1640930;84;21312;-74
2022/06/22 01:53:41;;;;;;;4.80;0.10;;;;;;;13.84;63.39;98622.28;1668018;84;21143;-70
2022/06/22 01:56:39;;;;;;;1.07;0.00;;;;;;;13.89;63.41;98624.23;1665860;84;21021;-72
2022/06/22 01:59:35;;;;;;;0.25;0.10;;;;;;;13.90;63.29;98625.83;1670723;84;21039;-72
2022/06/22 02:02:24;;;;;;;0.72;0.00;;;;;;;13.81;63.62;98622.81;1564562;90;21224;-72
2022/06/22 02:04:59;;;;;;;0.90;0.10;;;;;;;13.76;63.83;98632.92;1609741;87;21763;-73
2022/06/22 02:07:45;;;;;;;0.42;0.05;;;;;;;13.78;64.16;98635.35;1637736;85;21007;-71
2022/06/22 02:10:44;;;;;;;2.08;0.00;;;;;;;13.82;64.31;98635.95;1643569;85;21645;-70
2022/06/22 02:13:28;;;;;;;1.02;0.00;;;;;;;13.83;64.19;98635.41;1648911;85;21045;-72
2022/06/22 02:16:33;;;;;;;0.40;0.10;;;;;;;13.86;64.28;98640.78;1659145;85;20991;-70
2022/06/22 02:19:05;;;;;;;3.02;0.10;;;;;;;13.83;64.46;98633.54;1652037;85;21085;-71
2022/06/22 02:21:46;;;;;;;0.62;0.00;;;;;;;13.81;64.55;98630.84;1652786;85;21502;-69
2022/06/22 02:24:36;;;;;;;0.88;0.00;;;;;;;13.89;64.56;98636.28;1660625;83;21164;-70
2022/06/22 02:27:14;;;;;;;0.80;0.00;;;;;;;13.89;64.53;98634.94;1647853;84;21033;-71
2022/06/22 02:29:48;;;;;;;0.10;0.00;;;;;;;13.92;64.80;98635.25;1650004;85;21622;-72
2022/06/22 02:32:22;;;;;;;0.00;0.00;;;;;;;13.96;64.65;98640.38;1665893;84;21104;-73
2022/06/22 02:34:53;;;;;;;0.00;0.00;;;;;;;13.95;64.87;98637.41;1674252;81;21639;-71
2022/06/22 02:37:24;;;;;;;0.00;0.00;;;;;;;13.95;64.76;98637.95;1678159;84;21092;-71
2022/06/22 02:39:55;;;;;;;0.20;0.20;;;;;;;13.88;65.21;98638.16;1681149;84;21139;-71
2022/06/22 02:45:09;;;;;;;1.37;0.10;;;;;;;13.88;65.52;98633.31;1666792;84;21171;-72
2022/06/22 02:47:59;;;;;;;0.42;0.00;;;;;;;13.93;65.68;98637.39;1664560;85;21029;-71
2022/06/22 02:50:42;;;;;;;0.05;0.00;;;;;;;13.96;65.67;98639.58;1657018;85;21120;-69
2022/06/22 02:53:33;;;;;;;0.10;0.10;;;;;;;13.93;65.81;98635.52;1653691;85;21104;-71
2022/06/22 02:56:04;;;;;;;1.45;0.10;;;;;;;13.96;66.44;98634.22;1645687;85;21005;-72
2022/06/22 02:58:36;;;;;;;0.17;0.00;;;;;;;13.97;66.08;98636.63;1658728;85;21588;-71
2022/06/22 03:01:12;;;;;;;0.10;0.10;;;;;;;13.97;65.90;98633.14;1658368;84;21525;-71
2022/06/22 03:03:47;;;;;;;1.45;0.10;;;;;;;13.97;66.11;98639.84;1649316;85;21152;-71
2022/06/22 03:06:16;;;;;;;1.62;0.25;;;;;;;13.98;66.02;98634.23;1654211;85;21633;-71
2022/06/22 03:08:42;;;;;;;0.30;0.10;;;;;;;14.01;66.27;98630.23;1615273;87;21140;-72
2022/06/22 03:11:11;;;;;;;0.90;0.05;;;;;;;14.08;66.11;98634.06;1661840;85;21030;-73
2022/06/22 03:13:43;;;;;;;1.98;0.00;;;;;;;14.11;65.63;98633.03;1649361;85;21070;-72
2022/06/22 03:16:33;;;;;;;0.50;0.10;;;;;;;14.10;65.70;98626.04;1631195;86;21137;-73
2022/06/22 03:19:05;;;;;;;0.90;0.10;;;;;;;14.10;65.68;98620.68;1648943;85;21086;-72
2022/06/22 03:21:32;;;;;;;0.33;0.10;;;;;;;14.11;65.74;98616.13;1638554;85;21151;-71
2022/06/22 03:24:21;;;;;;;1.47;0.10;;;;;;;14.17;65.68;98627.98;1610690;87;21566;-71
2022/06/22 03:26:55;;;;;;;0.40;0.08;;;;;;;14.25;66.01;98628.59;1663151;84;21084;-72
2022/06/22 03:29:42;;;;;;;0.30;0.25;;;;;;;14.32;65.36;98625.19;1668080;84;21162;-71
2022/06/22 03:32:25;;;;;;;0.85;0.03;;;;;;;14.31;65.45;98623.02;1662428;84;21063;-71
2022/06/22 03:35:08;;;;;;;0.00;0.00;;;;;;;14.32;65.64;98618.48;1710539;82;21512;-74
2022/06/22 03:37:46;;;;;;;0.88;0.03;;;;;;;14.35;65.43;98621.47;1721910;82;21082;-72
2022/06/22 03:40:21;;;;;;;0.30;0.10;;;;;;;14.41;65.40;98627.68;1713967;82;21033;-70
2022/06/22 03:42:52;;;;;;;0.55;0.45;;;;;;;14.43;65.32;98626.89;1719346;82;21572;-71
2022/06/22 03:45:35;;;;;;;0.30;0.10;;;;;;;14.40;65.42;98632.20;1701276;82;21002;-72
2022/06/22 03:48:12;;;;;;;3.20;0.10;;;;;;;14.39;65.50;98639.16;1672295;84;21138;-70
2022/06/22 03:51:06;;;;;;;0.53;0.00;;;;;;;14.43;65.54;98636.78;1638200;86;21063;-69
2022/06/22 03:54:04;;;;;;;0.08;0.00;;;;;;;14.53;67.32;98636.88;1681348;84;21062;-72
2022/06/22 03:56:39;;;;;;;2.90;0.10;;;;;;;14.76;65.41;98635.20;1670193;84;21090;-74
2022/06/22 03:59:07;;;;;;;0.75;0.10;;;;;;;15.03;64.48;98635.67;1672991;84;21142;-70
2022/06/22 04:01:36;;;;;;;0.30;0.10;;;;;;;15.07;63.63;98635.94;1678988;84;21027;-73
2022/06/22 04:04:04;;;;;;;0.10;0.10;;;;;;;14.89;63.91;98644.69;1671095;84;21003;-69
2022/06/22 04:06:35;;;;;;;1.05;0.50;;;;;;;14.74;64.66;98641.36;1675175;84;21042;-78
2022/06/22 04:09:07;;;;;;;0.82;0.10;;;;;;;14.67;65.19;98643.98;1682496;84;21137;-84
2022/06/22 04:12:03;;;;;;;0.30;0.10;;;;;;;14.57;65.38;98646.86;1674395;84;21068;-74
2022/06/22 04:15:09;;;;;;;0.53;0.10;;;;;;;14.46;65.81;98640.30;1681999;84;21077;-72
2022/06/22 04:17:42;;;;;;;1.87;0.37;;;;;;;14.36;65.87;98640.48;1682079;84;21057;-71
2022/06/22 04:20:49;;;;;;;1.57;0.25;;;;;;;14.27;66.47;98638.53;1680229;84;21098;-74
2022/06/22 04:22:57;;;;;;;1.20;0.20;;;;;;;14.28;66.86;98638.79;1669337;82;21575;-73
2022/06/22 04:25:27;;;;;;;0.53;0.10;;;;;;;14.28;66.74;98641.47;1681674;84;21069;-73
2022/06/22 04:27:56;;;;;;;0.40;0.10;;;;;;;14.27;66.61;98642.01;1674378;84;21127;-75
2022/06/22 04:30:30;;;;;;;0.53;0.10;;;;;;;14.27;67.03;98646.56;1680053;84;21023;-72
2022/06/22 04:33:08;;;;;;;0.10;0.10;;;;;;;14.28;66.97;98644.98;1672849;84;21121;-74
2022/06/22 04:36:10;;;;;;;0.15;0.10;;;;;;;14.27;66.76;98642.55;1681747;84;21216;-74
2022/06/22 04:38:51;;;;;;;0.10;0.10;;;;;;;14.26;67.61;98644.94;1681736;84;21058;-74
2022/06/22 04:41:34;;;;;;;0.75;0.37;;;;;;;14.28;67.27;98642.30;1679136;84;21550;-74
2022/06/22 04:44:14;;;;;;;1.57;0.10;;;;;;;14.37;67.25;98641.28;1680670;84;21026;-75
2022/06/22 04:46:46;;;;;;;1.95;0.35;;;;;;;14.40;67.17;98651.52;1682663;84;21068;-74
2022/06/22 04:49:31;;;;;;;0.10;0.10;;;;;;;14.44;66.70;98655.84;1681763;84;21120;-72
2022/06/22 04:52:18;;;;;;;0.88;0.10;;;;;;;14.44;66.87;98659.31;1675882;84;21054;-74
2022/06/22 04:54:48;;;;;;;0.98;0.20;;;;;;;14.47;67.65;98668.74;1673619;84;21046;-76
2022/06/22 04:57:20;;;;;;;0.62;0.20;;;;;;;14.57;67.66;98662.95;1705820;83;21018;-73
2022/06/22 04:59:49;;;;;;;0.15;0.10;;;;;;;14.66;67.21;98672.68;1708546;83;21078;-73
2022/06/22 05:02:20;;;;;;;0.72;0.30;;;;;;;14.68;66.97;98661.70;1711424;82;21041;-72
2022/06/22 05:04:52;;;;;;;0.72;0.20;;;;;;;14.66;66.97;98671.88;1711264;82;21125;-72
2022/06/22 05:07:43;;;;;;;0.20;0.20;;;;;;;14.66;67.53;98673.22;1704567;82;21170;-72
2022/06/22 05:10:44;;;;;;;1.02;0.20;;;;;;;14.71;67.37;98676.75;1708680;82;21739;-76
2022/06/22 05:13:16;;;;;;;0.20;0.10;;;;;;;14.92;66.72;98674.23;1710077;81;21049;-74
2022/06/22 05:15:46;;;;;;;0.50;0.23;;;;;;;14.98;65.67;98672.66;1710994;82;21053;-75
2022/06/22 05:18:18;;;;;;;0.88;0.40;;;;;;;14.91;65.47;98672.06;1706751;82;21085;-76
2022/06/22 05:21:02;;;;;;;0.55;0.10;;;;;;;14.81;66.03;98667.97;1708080;82;21022;-67
2022/06/22 05:23:31;;;;;;;0.30;0.10;;;;;;;14.82;66.90;98669.57;1694884;80;21104;-62
2022/06/22 05:26:02;;;;;;;0.20;0.10;;;;;;;14.94;66.34;98670.75;1700689;82;21069;-71
2022/06/22 05:28:36;;;;;;;1.45;0.50;;;;;;;14.96;66.42;98673.44;1711544;83;21018;-72
2022/06/22 05:31:17;;;;;;;1.72;0.20;;;;;;;15.01;65.81;98667.83;1710067;82;20978;-69
2022/06/22 05:33:49;;;;;;;0.85;0.10;;;;;;;14.97;66.32;98667.03;1708904;82;21545;-69
2022/06/22 05:36:20;;;;;;;0.62;0.40;;;;;;;15.03;65.38;98672.41;1711044;82;21485;-71
2022/06/22 05:38:50;;;;;;;1.10;0.30;;;;;;;14.74;65.71;98620.44;1641965;86;21090;-71
2022/06/22 05:41:22;;;;;;;1.25;0.20;;;;;;;15.08;65.02;98668.42;1700070;82;21073;-69
2022/06/22 05:43:49;;;;;;;0.50;0.33;;;;;;;14.94;65.40;98668.07;1708503;82;21529;-68
2022/06/22 05:46:16;;;;;;;0.40;0.40;;;;;;;14.86;66.21;98677.41;1710994;81;21041;-68
2022/06/22 05:48:44;;;;;;;0.50;0.20;;;;;;;14.87;66.07;98668.81;1710911;82;21457;-69
2022/06/22 05:51:25;;;;;;;1.37;0.47;;;;;;;14.81;66.20;98676.02;1711620;82;21110;-71
2022/06/22 05:54:13;;;;;;;2.80;0.53;;;;;;;14.70;66.88;98671.09;1706868;82;21014;-71
2022/06/22 05:56:54;;;;;;;1.05;0.45;;;;;;;14.60;67.22;98675.84;1700771;80;21037;-70
2022/06/22 05:59:41;;;;;;;1.20;0.23;;;;;;;14.57;67.69;98682.25;1690716;82;21565;-74
2022/06/22 06:02:23;;;;;;;;;;;;;;;14.59;68.07;98672.88;1710958;82;21047;-68
2022/06/22 06:05:05;;;;;;;0.93;0.25;;;;;;;14.73;68.07;98669.77;1702022;82;20134;-67
2022/06/22 06:07:48;;;;;;;0.37;0.37;;;;;;;14.78;66.96;98669.27;1710404;82;21152;-66
2022/06/22 06:10:20;;;;;;;0.57;0.30;;;;;;;14.84;68.92;98672.80;1709128;82;21513;-68
2022/06/22 06:13:05;;;;;;;2.47;0.20;;;;;;;14.91;68.55;98677.97;1702737;80;20998;-68
2022/06/22 06:15:36;;;;;;;0.55;0.17;;;;;;;14.99;68.65;98683.67;1703151;82;21190;-72
2022/06/22 06:18:07;;;;;;;0.82;0.35;;;;;;;14.97;68.78;98683.63;1710818;82;21049;-71
2022/06/22 06:20:38;;;;;;;1.05;0.10;;;;;;;14.92;68.40;98689.78;1706704;82;21227;-67
2022/06/22 06:23:22;;;;;;;0.33;0.28;;;;;;;14.77;68.29;98686.98;1710310;81;21136;-69
2022/06/22 06:28:40;;;;;;;0.15;0.10;;;;;;;14.44;71.04;98696.84;1710260;82;21093;-68
2022/06/22 06:31:19;;;;;;;2.80;0.20;;;;;;;14.24;72.63;98692.63;1704278;83;20990;-67
2022/06/22 06:33:45;;;;;;;1.05;0.20;;;;;;;14.09;74.29;98696.77;1697826;80;21034;-65
2022/06/22 06:36:26;;;;;;;1.40;0.20;;;;;;;14.02;74.94;98701.52;1710792;82;21117;-70
2022/06/22 06:39:06;;;;;;;0.40;0.30;;;;;;;13.97;75.27;98697.42;1707478;82;21663;-68
2022/06/22 06:41:46;;;;;;;3.17;0.40;;;;;;;13.87;77.36;98695.45;1710189;82;21096;-68
2022/06/22 06:44:22;;;;;;;1.45;0.47;;;;;;;13.78;78.05;98692.92;1710309;82;21208;-65
2022/06/22 06:46:53;;;;;;;0.72;0.33;;;;;;;13.71;78.54;98697.14;1711002;82;21065;-65
2022/06/22 06:49:31;;;;;;;2.27;0.40;;;;;;;13.71;79.38;98696.31;1710896;82;21082;-70
2022/06/22 06:52:06;;;;;;;5.67;0.80;;;;;;;13.69;80.04;98703.78;1711048;82;21153;-65
2022/06/22 06:55:04;;;;;;;2.65;0.40;;;;;;;13.70;82.23;98705.42;1711602;83;21069;-68
2022/06/22 06:57:35;;;;;;;0.35;0.28;;;;;;;13.68;82.09;98703.52;1709364;82;21136;-70
2022/06/22 07:00:06;;;;;;;1.37;0.47;;;;;;;13.56;81.26;98715.66;1711055;82;21110;-68
2022/06/22 07:02:40;;;;;;;2.40;0.53;;;;;;;13.46;82.73;98715.53;1669657;84;21069;-66
2022/06/22 07:05:18;;;;;;;0.65;0.37;;;;;;;13.42;83.82;98716.02;1703780;82;21018;-67
2022/06/22 07:07:50;;;;;;;;;;;;;;;13.43;84.30;98722.20;1694427;82;21026;-68
2022/06/22 07:10:37;;;;;;;1.47;0.30;;;;;;;13.53;85.06;98720.19;1699395;82;20203;-66
2022/06/22 07:13:14;;;;;;;0.80;0.78;;;;;;;13.57;84.89;98719.97;1708896;82;21636;-66
2022/06/22 07:15:45;;;;;;;0.68;0.53;;;;;;;13.58;84.23;98725.59;1702855;82;21129;-66
2022/06/22 07:18:41;;;;;;;0.80;0.42;;;;;;;13.58;84.79;98726.93;1707893;82;21378;-70
2022/06/22 07:21:20;;;;;;;1.32;0.40;;;;;;;13.61;84.04;98731.80;1696350;82;21034;-69
2022/06/22 07:24:00;;;;;;;1.05;0.40;;;;;;;13.63;82.85;98729.69;1701081;81;21061;-68
2022/06/22 07:26:55;;;;;;;1.90;0.40;;;;;;;13.70;83.45;98727.64;1698475;82;21040;-70
2022/06/22 07:29:30;;;;;;;0.70;0.40;;;;;;;14.08;83.88;98735.87;1708306;82;22511;-68
2022/06/22 07:32:26;;;;;;;1.22;0.40;;;;;;;14.70;82.45;98732.78;1695595;82;21061;-69
2022/06/22 07:35:28;;;;;;;2.15;0.35;;;;;;;15.35;79.06;98732.73;1683098;81;21178;-69
2022/06/22 07:38:41;;;;;;;0.72;0.40;;;;;;;15.95;75.43;98735.52;1676539;85;21117;-68
2022/06/22 07:41:19;;;;;;;0.40;0.40;;;;;;;16.03;73.69;98732.86;1666363;84;21093;-70
2022/06/22 07:44:17;;;;;;;0.72;0.30;;;;;;;15.92;71.34;98744.64;1676477;84;21476;-67
2022/06/22 07:46:57;;;;;;;0.55;0.20;;;;;;;15.81;72.00;98745.66;1680323;84;21312;-70
2022/06/22 07:49:44;;;;;;;0.88;0.60;;;;;;;15.80;72.94;98746.71;1670772;84;21089;-68
2022/06/22 07:52:18;;;;;;;0.88;0.30;;;;;;;15.95;73.27;98750.30;1676042;84;21011;-69
2022/06/22 07:54:56;;;;;;;2.15;0.30;;;;;;;15.85;70.54;98742.17;1671705;84;22253;-70
2022/06/22 07:57:43;;;;;;;0.85;0.30;;;;;;;15.64;71.45;98740.44;1705612;83;21017;-69
2022/06/22 08:00:20;;;;;;;1.10;0.40;;;;;;;15.47;72.04;98744.09;1695356;83;21030;-70
2022/06/22 08:03:02;;;;;;;;;;;;;;;15.39;72.15;98747.28;1698149;83;21037;-68
2022/06/22 08:05:34;;;;;;;0.90;0.60;;;;;;;15.40;73.61;98750.22;1706540;83;20157;-68
2022/06/22 08:08:08;;;;;;;1.00;0.53;;;;;;;15.58;73.36;98744.43;1708701;83;21084;-70
2022/06/22 08:10:47;;;;;;;0.30;0.20;;;;;;;15.70;74.22;98756.84;1704299;83;21053;-69
2022/06/22 08:13:31;;;;;;;2.10;0.30;;;;;;;15.79;73.03;98751.29;1707050;82;21057;-70
2022/06/22 08:16:09;;;;;;;0.30;0.30;;;;;;;15.93;70.60;98750.27;1692356;83;21082;-69
2022/06/22 08:18:37;;;;;;;1.72;0.35;;;;;;;16.03;69.29;98753.53;1697537;83;21050;-69
2022/06/22 08:21:06;;;;;;;1.55;0.20;;;;;;;16.17;69.70;98753.86;1703045;83;21199;-70
2022/06/22 08:23:36;;;;;;;0.20;0.10;;;;;;;16.23;69.08;98758.98;1697752;82;21557;-70
2022/06/22 08:26:06;;;;;;;0.30;0.10;;;;;;;16.39;68.30;98749.09;1709816;82;21035;-69
2022/06/22 08:28:37;;;;;;;1.52;0.20;;;;;;;16.90;66.19;98749.73;1693567;82;21525;-70
2022/06/22 08:31:04;;;;;;;0.72;0.28;;;;;;;17.35;63.53;98753.48;1709827;82;21157;-71
2022/06/22 08:33:42;;;;;;;2.05;0.20;;;;;;;17.58;62.23;98751.29;1703817;82;21053;-70
2022/06/22 08:36:24;;;;;;;0.82;0.20;;;;;;;17.84;61.81;98753.38;1702635;82;21130;-71
2022/06/22 08:39:11;;;;;;;1.05;0.50;;;;;;;17.92;59.52;98753.38;1713842;82;21085;-68
2022/06/22 08:41:48;;;;;;;0.50;0.30;;;;;;;17.77;60.69;98753.66;1713944;82;21117;-71
2022/06/22 08:44:55;;;;;;;2.00;0.25;;;;;;;17.66;60.53;98756.91;1692781;81;21081;-70
2022/06/22 08:47:54;;;;;;;0.17;0.15;;;;;;;17.40;60.50;98754.00;1706759;82;21114;-71
2022/06/22 08:50:54;;;;;;;0.68;0.40;;;;;;;17.23;60.35;98756.98;1697160;82;21065;-73
2022/06/22 08:53:56;;;;;;;0.68;0.10;;;;;;;17.23;59.68;98759.13;1701940;82;21006;-71
2022/06/22 08:57:11;;;;;;;0.78;0.60;;;;;;;17.30;58.39;98755.62;1705601;82;22174;-70
2022/06/22 09:00:01;;;;;;;2.55;0.30;;;;;;;17.24;59.36;98768.83;1705689;82;21034;-72
2022/06/22 09:03:08;;;;;;;0.20;0.20;;;;;;;17.07;59.78;98763.73;1707241;82;21037;-70
2022/06/22 09:05:52;;;;;;;1.95;0.20;;;;;;;17.17;61.35;98766.95;1704868;82;22637;-71
2022/06/22 09:08:42;;;;;;;0.35;0.30;;;;;;;17.24;60.53;98772.88;1710049;82;21168;-70
2022/06/22 09:11:37;;;;;;;0.95;0.35;;;;;;;17.23;59.88;98773.14;1707806;82;21316;-72
2022/06/22 09:14:44;;;;;;;1.92;0.35;;;;;;;17.29;59.70;98759.41;1709747;82;21158;-75
2022/06/22 09:17:41;;;;;;;1.98;0.30;;;;;;;17.29;59.70;98759.41;1708860;82;21077;-72
2022/06/22 09:20:33;;;;;;;0.40;0.20;;;;;;;17.69;58.19;98768.50;1707216;82;21097;-69
2022/06/22 09:23:29;;;;;;;0.40;0.20;;;;;;;17.69;58.19;98768.50;1706441;82;21057;-71
2022/06/22 09:26:13;;;;;;;0.53;0.10;;;;;;;17.74;57.79;98764.97;1695688;82;22371;-70
2022/06/22 09:28:59;;;;;;;1.15;0.10;;;;;;;17.41;55.57;98731.39;1667075;82;21081;-72
2022/06/22 09:31:52;;;;;;;0.20;0.00;;;;;;;17.54;52.96;98776.61;1708075;82;22054;-70
2022/06/22 09:34:48;;;;;;;0.00;0.00;;;;;;;17.17;51.65;98785.80;1706863;82;21607;-71
2022/06/22 09:37:29;;;;;;;0.10;0.00;;;;;;;16.80;52.56;98777.42;1709155;82;21036;-72
2022/06/22 09:40:23;;;;;;;0.10;0.10;;;;;;;16.86;51.35;98776.92;1708414;82;21054;-70
2022/06/22 09:43:24;;;;;;;0.17;0.10;;;;;;;16.90;53.27;98776.09;1705418;82;21042;-70
2022/06/22 09:46:21;;;;;;;0.15;0.00;;;;;;;17.00;53.26;98769.91;1698485;81;21070;-71
2022/06/22 09:49:02;;;;;;;0.10;0.10;;;;;;;17.00;53.26;98769.91;1701888;82;21018;-71
2022/06/22 09:51:51;;;;;;;1.47;0.10;;;;;;;17.10;54.59;98769.09;1701213;82;21086;-72
2022/06/22 09:58:03;;;;;;;0.10;0.10;;;;;;;17.24;55.30;98774.22;1679122;82;20322;-69
2022/06/22 10:00:47;;;;;;;0.30;0.10;;;;;;;17.24;55.30;98774.22;1704552;82;21296;-70
2022/06/22 10:03:39;;;;;;;1.65;0.40;;;;;;;17.54;56.03;98768.53;1701766;82;21058;-69
2022/06/22 10:06:20;;;;;;;0.10;0.10;;;;;;;17.82;53.84;98764.42;1648653;84;21027;-71
2022/06/22 10:09:35;;;;;;;0.65;0.10;;;;;;;17.99;54.41;98764.13;1707637;82;21129;-71
2022/06/22 10:12:26;;;;;;;1.07;0.10;;;;;;;18.24;53.48;98761.05;1709131;82;21222;-71
2022/06/22 10:15:13;;;;;;;0.10;0.10;;;;;;;18.24;52.56;98765.09;1708495;82;21061;-68
2022/06/22 10:17:53;;;;;;;0.30;0.03;;;;;;;18.19;53.33;98767.81;1699013;82;21141;-70
2022/06/22 10:20:34;;;;;;;0.65;0.10;;;;;;;18.23;51.43;98767.52;1708787;82;21144;-70
2022/06/22 10:23:40;;;;;;;0.20;0.10;;;;;;;18.34;50.73;98777.72;1692522;82;21107;-73
2022/06/22 10:26:27;;;;;;;0.10;0.10;;;;;;;18.45;50.66;98775.23;1698984;82;21062;-70
2022/06/22 10:29:20;;;;;;;0.10;0.10;;;;;;;18.51;49.80;98785.45;1708000;82;21137;-70
2022/06/22 10:32:04;;;;;;;0.00;0.00;;;;;;;18.46;48.92;98793.05;1709573;82;21175;-70
2022/06/22 10:34:54;;;;;;;0.62;0.10;;;;;;;18.38;49.21;98791.70;1709792;82;21054;-74
2022/06/22 10:37:48;;;;;;;0.10;0.00;;;;;;;18.40;49.33;98786.88;1680364;82;21612;-70
2022/06/22 10:46:07;;;;;;;2.75;0.13;;;;;;;18.92;48.81;98775.23;1681558;83;21073;-71
2022/06/22 10:49:23;;;;;;;2.25;0.10;;;;;;;19.04;47.13;98779.74;1667107;84;21219;-72
2022/06/22 10:51:54;;;;;;;0.68;0.13;;;;;;;19.04;47.63;98778.91;1677604;84;21002;-70
2022/06/22 10:54:56;;;;;;;0.20;0.10;;;;;;;19.08;48.73;98774.59;1668933;84;21189;-70
2022/06/22 10:57:36;;;;;;;2.60;0.10;;;;;;;19.10;47.13;98771.05;1660171;84;21075;-73
2022/06/22 11:00:17;;;;;;;1.57;0.10;;;;;;;19.11;48.22;98775.35;1664706;84;21102;-71
2022/06/22 11:03:29;;;;;;;0.53;0.10;;;;;;;19.16;47.83;98780.72;1664668;84;21187;-73
2022/06/22 11:06:23;;;;;;;2.08;0.10;;;;;;;19.19;47.46;98780.17;1660151;84;21068;-72
2022/06/22 11:09:16;;;;;;;0.10;0.10;;;;;;;19.30;47.68;98776.81;1670624;84;21051;-71
2022/06/22 11:12:00;;;;;;;1.60;0.00;;;;;;;19.39;46.69;98793.22;1670955;84;21025;-69
2022/06/22 11:14:35;;;;;;;2.00;0.10;;;;;;;19.30;45.54;98786.27;1659250;84;22272;-73
2022/06/22 11:17:25;;;;;;;0.55;0.10;;;;;;;19.28;44.69;98782.25;1664986;84;21072;-70
2022/06/22 11:20:08;;;;;;;0.75;0.10;;;;;;;19.44;43.78;98783.73;1670268;84;21045;-72
2022/06/22 11:22:49;;;;;;;0.00;0.00;;;;;;;19.61;41.51;98794.91;1668512;83;21103;-70
2022/06/22 11:32:29;;;;;;;0.15;0.10;;;;;;;19.43;42.16;98807.22;1661466;84;21136;-70
2022/06/22 11:35:19;;;;;;;0.30;0.08;;;;;;;19.22;42.74;98794.44;1681249;84;21407;-70
2022/06/22 11:38:01;;;;;;;0.00;0.00;;;;;;;19.20;42.72;98798.52;1680582;84;21165;-71
2022/06/22 11:40:57;;;;;;;0.00;0.00;;;;;;;19.24;42.67;98800.91;1679490;84;21106;-69
2022/06/22 11:43:49;;;;;;;0.00;0.00;;;;;;;19.31;42.48;98797.86;1680122;84;21081;-71
2022/06/22 11:46:32;;;;;;;0.15;0.00;;;;;;;19.38;42.79;98801.05;1680706;84;21061;-70
2022/06/22 11:49:55;;;;;;;0.05;0.05;;;;;;;19.53;43.45;98799.55;1659449;86;21637;-70
2022/06/22 11:52:42;;;;;;;0.57;0.10;;;;;;;19.71;42.62;98804.80;1681425;84;21610;-71
2022/06/22 11:55:23;;;;;;;0.10;0.05;;;;;;;19.86;42.09;98805.22;1653884;84;21391;-69
2022/06/22 11:58:32;;;;;;;2.85;0.10;;;;;;;19.90;42.93;98805.45;1680907;84;21070;-74
2022/06/22 12:01:31;;;;;;;1.90;0.20;;;;;;;19.87;42.98;98814.13;1666186;84;21081;-75
2022/06/22 12:04:19;;;;;;;0.47;0.10;;;;;;;19.84;42.52;98833.89;1674760;84;21099;-72
2022/06/22 12:07:21;;;;;;;1.40;0.05;;;;;;;18.51;43.83;98635.72;1679788;84;21406;-69
2022/06/22 12:10:17;;;;;;;0.20;0.10;;;;;;;19.53;45.02;98821.73;1675746;84;21624;-72
2022/06/22 12:13:05;;;;;;;1.40;0.25;;;;;;;19.26;45.81;98823.05;1670676;84;21077;-73
2022/06/22 12:15:57;;;;;;;2.08;0.20;;;;;;;18.93;50.12;98840.83;1680027;84;21045;-70
2022/06/22 12:18:35;;;;;;;1.80;0.20;;;;;;;18.61;52.21;98844.23;1686463;84;21056;-70
2022/06/22 12:22:01;;;;;;;0.20;0.13;;;;;;;18.34;54.22;98845.95;1664539;84;21906;-70
2022/06/22 12:24:41;;;;;;;0.25;0.10;;;;;;;18.06;55.60;98840.13;1592274;88;21124;-73
2022/06/22 12:27:27;;;;;;;0.35;0.10;;;;;;;17.68;56.03;98846.35;1593339;88;21089;-73
2022/06/22 12:30:28;;;;;;;2.70;0.10;;;;;;;17.49;56.77;98853.38;1636952;84;21164;-72
2022/06/22 12:33:00;;;;;;;4.62;0.68;;;;;;;17.31;54.43;98839.39;1677382;84;21069;-72
2022/06/22 12:35:43;;;;;;;0.30;0.30;;;;;;;17.22;57.29;98840.20;1674850;84;21113;-73
2022/06/22 12:38:16;;;;;;;0.42;0.20;;;;;;;17.25;58.61;98844.52;1668118;84;21074;-71
2022/06/22 12:40:48;;;;;;;0.68;0.33;;;;;;;17.43;59.63;98845.05;1676465;84;21613;-72
2022/06/22 12:43:36;;;;;;;0.68;0.30;;;;;;;17.43;59.63;98845.05;1677775;84;21102;-72
2022/06/22 12:46:29;;;;;;;0.82;0.10;;;;;;;17.47;58.67;98854.20;1678859;83;21054;-72
2022/06/22 12:51:36;;;;;;;0.37;0.10;;;;;;;17.89;59.32;98850.40;1783704;78;22975;-73
2022/06/22 12:54:24;;;;;;;0.98;0.30;;;;;;;18.01;55.69;98855.52;1756474;80;21034;-75
2022/06/22 12:56:57;;;;;;;0.17;0.10;;;;;;;18.16;51.51;98847.90;1701969;81;21592;-72
2022/06/22 12:59:51;;;;;;;1.17;0.10;;;;;;;18.19;49.85;98854.10;1736059;81;21056;-76
2022/06/22 13:02:27;;;;;;;0.10;0.00;;;;;;;18.18;47.27;98850.61;1730858;82;21060;-72
2022/06/22 13:05:05;;;;;;;0.23;0.10;;;;;;;18.20;48.74;98839.55;1732706;81;21056;-72
2022/06/22 13:07:43;;;;;;;0.10;0.00;;;;;;;18.21;48.15;98838.45;1738786;81;21068;-70
2022/06/22 13:10:21;;;;;;;0.42;0.20;;;;;;;18.16;46.64;98850.59;1732218;81;21137;-72
2022/06/22 13:13:17;;;;;;;0.47;0.00;;;;;;;18.15;45.90;98854.39;1730844;81;21143;-81